• Join FlightAware (Why Join?)
  • Login
  • US Flag 
12:28PM EDT


 

Airport Tracker/Info


-or-


 

Live Flight TrackerFlight Track Log ✈ GJS3618 ✈ 02-May-2013 ✈ KDEN - KGRR

Flight Track Log - Related Links

Times and Time Zones

All times are in EDT time to prevent confusion due to time zone crossing. See the GJS3618 flight status page for this flight to view local times or setup timezone preferences in your user account.

Time Position Orientation Groundspeed Altitude Reporting Facility
EDT Latitude Longitude Course Direction KTS MPH feet Rate Location/Type
09:42PM 39.8833 -104.6167 90° East 171 197 6,200  Level Denver TRACON
09:43PM 39.8833 -104.5500 90° East 213 245 7,900 1,320 Climbing Denver TRACON
09:45PM 39.9311 -104.3333 74° East 297 342 10,400 1,380 Climbing Denver Center
09:46PM 39.9600 -104.2050 74° East 344 396 12,500 2,220 Climbing Denver Center
09:47PM 39.9800 -104.0806 78° East 349 402 15,100 2,100 Climbing Denver Center
09:48PM 39.9928 -103.9519 83° East 358 412 16,900 1,440 Climbing Denver Center
09:49PM 40.0150 -103.8083 79° East 376 433 18,100 1,200 Climbing Denver Center
09:50PM 40.0367 -103.6722 78° East 370 426 19,500 1,380 Climbing Denver Center
09:51PM 40.0600 -103.5308 78° East 392 451 21,000 1,320 Climbing Denver Center
09:52PM 40.0833 -103.3864 78° East 401 461 22,300 1,200 Climbing Denver Center
09:53PM 40.1078 -103.2392 78° East 410 472 23,500 1,080 Climbing Denver Center
09:54PM 40.1311 -103.0897 78° East 416 479 24,600 960 Climbing Denver Center
09:55PM 40.1547 -102.9375 78° East 422 486 25,700 1,080 Climbing Denver Center
09:56PM 40.2014 -102.7439 72° East 416 479 27,200 1,260 Climbing Denver Center
09:57PM 40.2358 -102.5978 73° East 417 480 28,400 1,020 Climbing Denver Center
09:59PM 40.2692 -102.4592 72° East 419 482 29,400 960 Climbing Denver Center
10:00PM 40.3078 -102.2975 73° East 418 481 30,500 960 Climbing Denver Center
10:01PM 40.3392 -102.1589 73° East 415 478 31,400 840 Climbing Denver Center
10:02PM 40.3772 -101.9950 73° East 421 484 32,300 780 Climbing Denver Center
10:03PM 40.4106 -101.8553 73° East 422 486 33,100 720 Climbing Denver Center
10:04PM 40.4478 -101.6908 73° East 422 486 33,900 540 Climbing Denver Center
10:05PM 40.4808 -101.5483 73° East 425 489 34,400 480 Climbing Denver Center
10:06PM 40.5250 -101.3528 73° East 437 503 35,100 480 Climbing Denver Center
10:07PM 40.5578 -101.2058 74° East 438 504 35,500 480 Climbing Denver Center
10:08PM 40.5972 -101.0322 73° East 445 512 36,100 480 Climbing Denver Center
10:09PM 40.6297 -100.8825 74° East 447 514 36,600 420 Climbing Denver Center
10:10PM 40.6681 -100.7081 74° East 451 519 37,000 180 Climbing Denver Center
10:11PM 40.7069 -100.5314 74° East 457 526 37,000  Level Denver Center
10:12PM 40.7397 -100.3758 74° East 463 533 37,000  Level Denver Center
10:13PM 40.7786 -100.1936 74° East 464 534 37,000  Level Denver Center
10:14PM 40.8122 -100.0350 74° East 469 540 37,000  Level Denver Center
10:15PM 40.8464 -99.8742 74° East 474 545 37,000  Level Denver Center
10:16PM 40.8844 -99.6981 74° East 473 544 37,000  Level Denver Center
10:17PM 40.9125 -99.5628 75° East 477 549 37,000  Level Denver Center
10:18PM 40.9536 -99.3614 75° East 473 544 37,000  Level Denver Center
10:19PM 40.9883 -99.1914 75° East 478 550 37,000  Level Denver Center
10:20PM 41.0294 -98.9864 75° East 477 549 37,000  Level Denver Center
10:21PM 41.0619 -98.8239 75° East 477 549 37,000  Level Denver Center
10:23PM 41.0950 -98.6594 75° East 478 550 37,000  Level Denver Center
10:24PM 41.1347 -98.4575 75° East 477 549 37,000  Level Denver Center
10:25PM 41.1744 -98.2528 75° East 479 551 37,000  Level Minneapolis Center
10:26PM 41.2067 -98.0828 76° East 477 549 37,000  Level Minneapolis Center
10:27PM 41.2397 -97.9111 76° East 479 551 37,000  Level Minneapolis Center
10:28PM 41.2733 -97.7381 75° East 482 555 37,000  Level Minneapolis Center
10:29PM 41.3053 -97.5647 76° East 483 556 37,000  Level Minneapolis Center
10:30PM 41.3394 -97.3828 76° East 488 562 37,000  Level Minneapolis Center
10:31PM 41.3722 -97.2083 76° East 488 562 37,000  Level Minneapolis Center
10:32PM 41.4042 -97.0317 76° East 490 564 37,000  Level Minneapolis Center
10:33PM 41.4358 -96.8561 76° East 489 563 37,000  Level Minneapolis Center
10:34PM 41.4689 -96.6772 76° East 494 568 37,000  Level Minneapolis Center
10:35PM 41.5006 -96.4983 77° East 494 568 37,000  Level Minneapolis Center
10:36PM 41.5306 -96.3300 77° East 489 563 37,000  Level Minneapolis Center
10:37PM 41.5594 -96.1511 78° East 493 567 37,000  Level Minneapolis Center
10:38PM 41.5969 -95.9394 77° East 489 563 37,000  Level Minneapolis Center
10:39PM 41.6281 -95.7611 77° East 493 567 37,000  Level Minneapolis Center
10:40PM 41.6553 -95.6019 77° East 489 563 37,000  Level Minneapolis Center
10:41PM 41.6858 -95.4233 77° East 490 564 37,000  Level Minneapolis Center
10:42PM 41.7150 -95.2436 78° East 493 567 37,000  Level Minneapolis Center
10:43PM 41.7447 -95.0631 78° East 495 570 37,000  Level Minneapolis Center
10:44PM 41.7789 -94.8494 78° East 492 566 37,000  Level Minneapolis Center
10:45PM 41.8067 -94.6719 78° East 488 562 37,000  Level Minneapolis Center
10:46PM 41.8342 -94.4950 78° East 487 560 37,000  Level Minneapolis Center
10:47PM 41.8628 -94.3197 78° East 483 556 37,000  Level Minneapolis Center
10:48PM 41.8894 -94.1439 78° East 483 556 37,000  Level Minneapolis Center
10:49PM 41.9164 -93.9675 78° East 484 557 37,000  Level Minneapolis Center
10:50PM 41.9461 -93.7764 78° East 486 559 37,000  Level Minneapolis Center
10:51PM 41.9731 -93.6006 78° East 486 559 37,000  Level Minneapolis Center
10:52PM 41.9992 -93.4228 79° East 488 562 37,000  Level Minneapolis Center
10:53PM 42.0253 -93.2481 79° East 483 556 37,000  Level Minneapolis Center
10:54PM 42.0511 -93.0697 79° East 487 560 37,000  Level Minneapolis Center
10:55PM 42.0756 -92.8944 79° East 484 557 37,000  Level Minneapolis Center
10:56PM 42.1011 -92.7203 79° East 481 554 37,000  Level Minneapolis Center
10:57PM 42.1306 -92.5103 79° East 480 552 37,000  Level Minneapolis Center
10:58PM 42.1594 -92.3025 79° East 477 549 37,000  Level Minneapolis Center
11:00PM 42.1822 -92.1297 80° East 475 547 37,000  Level Minneapolis Center
11:00PM 42.1964 -92.0242 80° East 475 547 37,000  Level Chicago Center
11:01PM 42.2186 -91.8522 80° East 474 545 37,000  Level Chicago Center
11:02PM 42.2419 -91.6828 79° East 469 540 37,000  Level Chicago Center
11:03PM 42.2692 -91.4758 80° East 474 545 37,000  Level Chicago Center
11:04PM 42.2917 -91.3028 80° East 474 545 37,000  Level Chicago Center
11:05PM 42.3133 -91.1297 80° East 476 548 37,000  Level Chicago Center
11:06PM 42.3350 -90.9569 80° East 472 543 37,000  Level Chicago Center
11:07PM 42.3572 -90.7819 80° East 477 549 37,000  Level Chicago Center
11:08PM 42.3789 -90.6053 81° East 482 555 37,000  Level Chicago Center
11:09PM 42.3994 -90.4300 81° East 479 551 37,000  Level Chicago Center
11:10PM 42.4208 -90.2533 81° East 482 555 37,000  Level Chicago Center
11:11PM 42.4444 -90.0419 81° East 481 554 37,000  Level Chicago Center
11:12PM 42.4658 -89.8650 81° East 479 551 37,000  Level Chicago Center
11:13PM 42.4858 -89.6850 81° East 482 555 37,000  Level Chicago Center
11:14PM 42.5056 -89.5056 81° East 483 556 37,000  Level Chicago Center
11:15PM 42.5256 -89.3242 81° East 487 560 37,000  Level Chicago Center
11:16PM 42.5456 -89.1444 81° East 486 559 37,000  Level Chicago Center
11:17PM 42.5647 -88.9633 82° East 488 562 37,000 -480 Level Chicago Center
11:18PM 42.5842 -88.7817 82° East 490 564 36,100 -1,800 Descending Chicago Center
11:20PM 42.6058 -88.5739 82° East 481 554 33,400 -2,280 Descending Chicago Center
11:21PM 42.6242 -88.4017 82° East 466 536 31,500 -1,800 Descending Chicago Center
11:22PM 42.6419 -88.2303 82° East 461 531 29,800 -1,680 Descending Chicago Center
11:23PM 42.6589 -88.0583 82° East 461 531 28,100 -1,680 Descending Chicago Center
11:24PM 42.6756 -87.8842 83° East 466 536 26,500 -1,560 Descending Chicago Center
11:25PM 42.6922 -87.7144 82° East 457 526 25,000 -1,200 Descending Chicago Center
11:26PM 42.7083 -87.5500 82° East 443 510 24,100 -540 Descending Chicago Center
11:27PM 42.7242 -87.3747 83° East 429 494 24,000 -60 Descending Chicago Center
11:28PM 42.7386 -87.2150 83° East 427 491 24,000 -300 Level Chicago Center
11:29PM 42.7536 -87.0553 83° East 427 491 23,400 -1,620 Descending Chicago Center
11:30PM 42.7681 -86.8978 83° East 423 487 20,800 -2,460 Descending Chicago Center
11:31PM 42.7811 -86.7486 83° East 403 464 18,500 -2,220 Descending Chicago Center
11:32PM 42.7933 -86.6050 83° East 387 445 16,400 -2,160 Descending Chicago Center
11:33PM 42.8042 -86.4706 84° East 366 421 14,200 -2,040 Descending Chicago Center
11:34PM 42.8150 -86.3461 83° East 333 383 12,300 -2,040 Descending Chicago Center
11:35PM 42.8244 -86.2389 83° East 293 337 10,100 -2,100 Descending Chicago Center
11:36PM 42.8319 -86.1403 84° East 269 310 8,100 -2,100 Descending Chicago Center
11:37PM 42.8400 -86.0444 83° East 260 299 5,900 -2,100 Descending Chicago Center
11:38PM 42.8517 -85.9406 81° East 239 275 3,900 -1,440 Descending Chicago Center
11:39PM 42.8575 -85.8683 84° East 204 235 3,000 -480 Descending Chicago Center
11:40PM 42.8622 -85.8014 84° East 183 211 3,000 -180 Level Chicago Center
11:41PM 42.8669 -85.7317 85° East 184 212 2,700 -540 Descending Chicago Center
11:42PM 42.8706 -85.6611 86° East 187 215 2,000 -600 Descending Chicago Center
11:43PM 42.8681 -85.6028 93° East 167 192 1,600 -480 Descending Chicago Center
11:44PM 42.8747 -85.5528 80° East 146 168 1,100 -360 Descending Chicago Center
11:45PM 42.8806 -85.5014 81° East 144 166 900 -240 Descending Chicago Center
11:47PM 42.8667 -85.5167 90° East  Level FlightAware Approximate